Time,TemperatureF,DewpointF,PressureIn,WindDirection,WindDirectionDegrees,WindSpeedMPH,WindSpeedGustMPH,Humidity,HourlyPrecipIn,Conditions,Clouds,dailyrainin,SoftwareType,DateUTC
2013-02-15 00:10:00,51.3,27.2,30.10,ESE,112,2.7,-999.0,39,-99.99,,,0.00,Acu-Link.com,2013-02-15 08:10:00,
2013-02-15 00:25:00,50.0,28.4,30.09,SE,135,6.3,-999.0,43,-99.99,,,0.00,Acu-Link.com,2013-02-15 08:25:00,
2013-02-15 00:41:00,51.1,27.6,30.10,SE,135,4.2,-999.0,40,-99.99,,,0.00,Acu-Link.com,2013-02-15 08:41:00,
2013-02-15 00:56:00,51.6,28.1,30.09,ESE,112,14.0,-999.0,40,-99.99,,,0.00,Acu-Link.com,2013-02-15 08:56:00,
2013-02-15 01:17:00,51.8,27.6,30.09,ENE,67,4.7,-999.0,39,-99.99,,,0.00,Acu-Link.com,2013-02-15 09:17:00,
2013-02-15 01:33:00,47.5,27.2,30.09,NNE,22,7.3,-999.0,45,-99.99,,,0.00,Acu-Link.com,2013-02-15 09:33:00,
2013-02-15 01:48:00,49.5,28.5,30.09,ESE,112,3.7,-999.0,44,-99.99,,,0.00,Acu-Link.com,2013-02-15 09:48:00,
2013-02-15 02:03:00,49.3,29.4,30.09,South,180,4.2,-999.0,46,-99.99,,,0.00,Acu-Link.com,2013-02-15 10:03:00,
2013-02-15 02:18:00,49.3,27.8,30.09,North,0,0.0,-999.0,43,-99.99,,,0.00,Acu-Link.com,2013-02-15 10:18:00,
2013-02-15 02:33:00,49.5,27.4,30.08,SSE,157,4.7,-999.0,42,-99.99,,,0.00,Acu-Link.com,2013-02-15 10:33:00,
2013-02-15 02:49:00,50.4,27.6,30.08,SSE,157,6.8,-999.0,41,-99.99,,,0.00,Acu-Link.com,2013-02-15 10:49:00,
2013-02-15 03:04:00,50.9,28.0,30.08,South,180,4.2,-999.0,41,-99.99,,,0.00,Acu-Link.com,2013-02-15 11:04:00,
2013-02-15 03:19:00,49.6,27.5,30.08,SSE,157,3.2,-999.0,42,-99.99,,,0.00,Acu-Link.com,2013-02-15 11:19:00,
2013-02-15 03:35:00,47.3,27.0,30.08,SSE,157,4.2,-999.0,45,-99.99,,,0.00,Acu-Link.com,2013-02-15 11:35:00,
2013-02-15 03:50:00,48.9,27.4,30.08,SE,135,3.2,-999.0,43,-99.99,,,0.00,Acu-Link.com,2013-02-15 11:50:00,
2013-02-15 04:05:00,48.2,29.4,30.08,NNE,22,5.8,-999.0,48,-99.99,,,0.00,Acu-Link.com,2013-02-15 12:05:00,
2013-02-15 04:21:00,46.8,27.1,30.08,SSE,157,3.7,-999.0,46,-99.99,,,0.00,Acu-Link.com,2013-02-15 12:21:00,
2013-02-15 04:36:00,47.3,26.5,30.09,South,180,5.3,-999.0,44,-99.99,,,0.00,Acu-Link.com,2013-02-15 12:36:00,
2013-02-15 04:51:00,48.0,26.0,30.08,South,180,5.8,-999.0,42,-99.99,,,0.00,Acu-Link.com,2013-02-15 12:51:00,
2013-02-15 05:06:00,47.8,26.4,30.08,SE,135,6.3,-999.0,43,-99.99,,,0.00,Acu-Link.com,2013-02-15 13:06:00,
2013-02-15 05:22:00,48.4,33.0,30.09,South,180,4.7,-999.0,55,-99.99,,,0.00,Acu-Link.com,2013-02-15 13:22:00,
2013-02-15 05:37:00,45.9,27.8,30.09,SE,135,4.2,-999.0,49,-99.99,,,0.00,Acu-Link.com,2013-02-15 13:37:00,
2013-02-15 05:52:00,47.5,26.1,30.09,ESE,112,5.3,-999.0,43,-99.99,,,0.00,Acu-Link.com,2013-02-15 13:52:00,
2013-02-15 06:08:00,46.6,26.4,30.09,SSE,157,5.8,-999.0,45,-99.99,,,0.00,Acu-Link.com,2013-02-15 14:08:00,
2013-02-15 06:23:00,48.0,26.6,30.10,ESE,112,5.8,-999.0,43,-99.99,,,0.00,Acu-Link.com,2013-02-15 14:23:00,
2013-02-15 06:38:00,46.2,27.1,30.11,NE,45,4.7,-999.0,47,-99.99,,,0.00,Acu-Link.com,2013-02-15 14:38:00,
2013-02-15 06:54:00,47.1,26.9,30.10,SE,135,6.8,-999.0,45,-99.99,,,0.00,Acu-Link.com,2013-02-15 14:54:00,
2013-02-15 07:09:00,49.3,27.2,30.10,SSE,157,4.7,-999.0,42,-99.99,,,0.00,Acu-Link.com,2013-02-15 15:09:00,
2013-02-15 07:24:00,49.8,27.6,30.12,ESE,112,6.3,-999.0,42,-99.99,,,0.00,Acu-Link.com,2013-02-15 15:24:00,
2013-02-15 07:39:00,53.2,28.3,30.12,SSE,157,5.8,-999.0,38,-99.99,,,0.00,Acu-Link.com,2013-02-15 15:39:00,
2013-02-15 07:55:00,63.1,46.2,30.12,SSW,202,3.7,-999.0,54,-99.99,,,0.00,Acu-Link.com,2013-02-15 15:55:00,
2013-02-15 08:10:00,57.6,30.2,30.12,South,180,3.2,-999.0,35,-99.99,,,0.00,Acu-Link.com,2013-02-15 16:10:00,
2013-02-15 08:25:00,60.4,31.2,30.13,East,90,2.2,-999.0,33,-99.99,,,0.00,Acu-Link.com,2013-02-15 16:25:00,
2013-02-15 08:40:00,61.7,31.5,30.13,South,180,3.2,-999.0,32,-99.99,,,0.00,Acu-Link.com,2013-02-15 16:40:00,
2013-02-15 08:56:00,60.8,33.0,30.12,West,270,2.2,-999.0,35,-99.99,,,0.00,Acu-Link.com,2013-02-15 16:56:00,
2013-02-15 09:11:00,63.5,25.0,30.13,SSW,202,3.7,-999.0,23,-99.99,,,0.00,Acu-Link.com,2013-02-15 17:11:00,
2013-02-15 09:26:00,66.6,25.5,30.13,SW,225,0.0,-999.0,21,-99.99,,,0.00,Acu-Link.com,2013-02-15 17:26:00,
2013-02-15 09:42:00,65.7,25.8,30.11,SW,225,4.2,-999.0,22,-99.99,,,0.00,Acu-Link.com,2013-02-15 17:42:00,
2013-02-15 09:57:00,64.8,24.0,30.11,West,270,4.7,-999.0,21,-99.99,,,0.00,Acu-Link.com,2013-02-15 17:57:00,
2013-02-15 10:12:00,66.2,24.0,30.12,West,270,1.1,-999.0,20,-99.99,,,0.00,Acu-Link.com,2013-02-15 18:12:00,
2013-02-15 10:28:00,68.5,24.6,30.11,SW,225,1.1,-999.0,19,-99.99,,,0.00,Acu-Link.com,2013-02-15 18:28:00,
2013-02-15 10:43:00,69.4,24.1,30.11,SSW,202,3.2,-999.0,18,-99.99,,,0.00,Acu-Link.com,2013-02-15 18:43:00,
2013-02-15 10:58:00,69.6,21.4,30.11,WNW,292,4.7,-999.0,16,-99.99,,,0.00,Acu-Link.com,2013-02-15 18:58:00,
2013-02-15 11:13:00,72.1,21.9,30.11,SSE,157,3.2,-999.0,15,-99.99,,,0.00,Acu-Link.com,2013-02-15 19:13:00,
2013-02-15 11:29:00,72.0,18.5,30.09,WSW,247,4.7,-999.0,13,-99.99,,,0.00,Acu-Link.com,2013-02-15 19:29:00,
2013-02-15 11:44:00,72.9,13.2,30.09,SSE,157,3.2,-999.0,10,-99.99,,,0.00,Acu-Link.com,2013-02-15 19:44:00,
2013-02-15 11:59:00,74.7,14.5,30.09,WNW,292,3.2,-999.0,10,-99.99,,,0.00,Acu-Link.com,2013-02-15 19:59:00,
2013-02-15 12:14:00,75.0,12.4,30.07,NE,45,7.3,-999.0,9,-99.99,,,0.00,Acu-Link.com,2013-02-15 20:14:00,
2013-02-15 12:30:00,75.0,12.4,30.08,NE,45,4.7,-999.0,9,-99.99,,,0.00,Acu-Link.com,2013-02-15 20:30:00,
2013-02-15 12:45:00,75.4,15.1,30.07,ENE,67,4.7,-999.0,10,-99.99,,,0.00,Acu-Link.com,2013-02-15 20:45:00,
2013-02-15 13:00:00,74.5,14.4,30.07,NE,45,10.9,-999.0,10,-99.99,,,0.00,Acu-Link.com,2013-02-15 21:00:00,
2013-02-15 13:15:00,74.3,16.4,30.06,East,90,15.5,-999.0,11,-99.99,,,0.00,Acu-Link.com,2013-02-15 21:15:00,
2013-02-15 13:31:00,75.6,12.8,30.06,ESE,112,9.9,-999.0,9,-99.99,,,0.00,Acu-Link.com,2013-02-15 21:31:00,
2013-02-15 13:46:00,75.0,12.4,30.06,NNE,22,2.7,-999.0,9,-99.99,,,0.00,Acu-Link.com,2013-02-15 21:46:00,
2013-02-15 14:01:00,75.2,12.5,30.07,NE,45,10.9,-999.0,9,-99.99,,,0.00,Acu-Link.com,2013-02-15 22:01:00,
2013-02-15 14:16:00,75.0,12.4,30.06,ESE,112,8.9,-999.0,9,-99.99,,,0.00,Acu-Link.com,2013-02-15 22:16:00,
2013-02-15 14:32:00,74.7,9.5,30.06,ENE,67,4.7,-999.0,8,-99.99,,,0.00,Acu-Link.com,2013-02-15 22:32:00,
2013-02-15 14:47:00,75.2,14.9,30.06,ENE,67,6.3,-999.0,10,-99.99,,,0.00,Acu-Link.com,2013-02-15 22:47:00,
2013-02-15 15:02:00,75.0,12.4,30.07,East,90,7.3,-999.0,9,-99.99,,,0.00,Acu-Link.com,2013-02-15 23:02:00,
2013-02-15 15:17:00,73.4,11.2,30.06,ENE,67,5.8,-999.0,9,-99.99,,,0.00,Acu-Link.com,2013-02-15 23:17:00,
2013-02-15 15:32:00,72.5,12.9,30.07,NE,45,8.3,-999.0,10,-99.99,,,0.00,Acu-Link.com,2013-02-15 23:32:00,
2013-02-15 15:48:00,73.0,10.9,30.06,NNE,22,9.4,-999.0,9,-99.99,,,0.00,Acu-Link.com,2013-02-15 23:48:00,
2013-02-15 16:03:00,72.9,10.8,30.07,ESE,112,4.2,-999.0,9,-99.99,,,0.00,Acu-Link.com,2013-02-16 00:03:00,
2013-02-15 16:18:00,71.1,11.8,30.07,ESE,112,7.8,-999.0,10,-99.99,,,0.00,Acu-Link.com,2013-02-16 00:18:00,
2013-02-15 16:34:00,70.3,13.3,30.08,ENE,67,4.7,-999.0,11,-99.99,,,0.00,Acu-Link.com,2013-02-16 00:34:00,
2013-02-15 16:49:00,69.4,12.6,30.07,NNE,22,4.7,-999.0,11,-99.99,,,0.00,Acu-Link.com,2013-02-16 00:49:00,
2013-02-15 17:04:00,68.4,11.9,30.09,East,90,6.3,-999.0,11,-99.99,,,0.00,Acu-Link.com,2013-02-16 01:04:00,
2013-02-15 17:20:00,67.3,13.0,30.09,North,0,3.7,-999.0,12,-99.99,,,0.00,Acu-Link.com,2013-02-16 01:20:00,
2013-02-15 17:35:00,66.4,10.3,30.09,West,270,1.7,-999.0,11,-99.99,,,0.00,Acu-Link.com,2013-02-16 01:35:00,
2013-02-15 17:50:00,65.7,9.8,30.09,NNE,22,3.2,-999.0,11,-99.99,,,0.00,Acu-Link.com,2013-02-16 01:50:00,
2013-02-15 18:05:00,65.5,9.6,30.09,ENE,67,5.8,-999.0,11,-99.99,,,0.00,Acu-Link.com,2013-02-16 02:05:00,
2013-02-15 18:21:00,65.3,9.5,30.10,ESE,112,3.7,-999.0,11,-99.99,,,0.00,Acu-Link.com,2013-02-16 02:21:00,
2013-02-15 18:36:00,64.4,12.5,30.10,SSE,157,6.8,-999.0,13,-99.99,,,0.00,Acu-Link.com,2013-02-16 02:36:00,
2013-02-15 18:51:00,62.4,18.4,30.11,South,180,4.2,-999.0,18,-99.99,,,0.00,Acu-Link.com,2013-02-16 02:51:00,
2013-02-15 19:07:00,61.7,17.8,30.11,South,180,4.2,-999.0,18,-99.99,,,0.00,Acu-Link.com,2013-02-16 03:07:00,
2013-02-15 19:22:00,59.7,19.7,30.12,SSE,157,5.3,-999.0,21,-99.99,,,0.00,Acu-Link.com,2013-02-16 03:22:00,
2013-02-15 19:37:00,59.2,18.2,30.12,South,180,2.7,-999.0,20,-99.99,,,0.00,Acu-Link.com,2013-02-16 03:37:00,
2013-02-15 19:52:00,58.1,19.5,30.13,South,180,2.7,-999.0,22,-99.99,,,0.00,Acu-Link.com,2013-02-16 03:52:00,
2013-02-15 20:08:00,57.2,19.8,30.13,ESE,112,3.2,-999.0,23,-99.99,,,0.00,Acu-Link.com,2013-02-16 04:08:00,
2013-02-15 20:23:00,55.8,21.4,30.14,West,270,0.0,-999.0,26,-99.99,,,0.00,Acu-Link.com,2013-02-16 04:23:00,
2013-02-15 20:38:00,54.9,18.8,30.14,SSE,157,2.7,-999.0,24,-99.99,,,0.00,Acu-Link.com,2013-02-16 04:38:00,
2013-02-15 20:53:00,53.8,24.6,30.14,WSW,247,1.1,-999.0,32,-99.99,,,0.00,Acu-Link.com,2013-02-16 04:53:00,
2013-02-15 21:09:00,52.3,24.8,30.15,ESE,112,2.7,-999.0,34,-99.99,,,0.00,Acu-Link.com,2013-02-16 05:09:00,
2013-02-15 21:24:00,51.8,24.3,30.15,SSE,157,3.7,-999.0,34,-99.99,,,0.00,Acu-Link.com,2013-02-16 05:24:00,
2013-02-15 21:39:00,51.6,24.2,30.14,SSE,157,3.2,-999.0,34,-99.99,,,0.00,Acu-Link.com,2013-02-16 05:39:00,
2013-02-15 21:54:00,52.2,22.5,30.14,SSW,202,2.7,-999.0,31,-99.99,,,0.00,Acu-Link.com,2013-02-16 05:54:00,
2013-02-15 22:09:00,51.1,23.7,30.15,NE,45,2.7,-999.0,34,-99.99,,,0.00,Acu-Link.com,2013-02-16 06:09:00,
2013-02-15 22:25:00,50.5,23.9,30.15,SSE,157,4.7,-999.0,35,-99.99,,,0.00,Acu-Link.com,2013-02-16 06:25:00,
2013-02-15 22:40:00,49.3,24.1,30.15,ESE,112,4.7,-999.0,37,-99.99,,,0.00,Acu-Link.com,2013-02-16 06:40:00,
2013-02-15 22:55:00,48.9,24.4,30.14,SSW,202,2.7,-999.0,38,-99.99,,,0.00,Acu-Link.com,2013-02-16 06:55:00,
2013-02-15 23:10:00,48.2,24.4,30.15,South,180,1.7,-999.0,39,-99.99,,,0.00,Acu-Link.com,2013-02-16 07:10:00,
2013-02-15 23:26:00,48.2,23.2,30.14,SSE,157,4.2,-999.0,37,-99.99,,,0.00,Acu-Link.com,2013-02-16 07:26:00,
2013-02-15 23:41:00,48.6,23.5,30.14,SSE,157,3.7,-999.0,37,-99.99,,,0.00,Acu-Link.com,2013-02-16 07:41:00,
2013-02-15 23:56:00,47.8,23.4,30.13,SE,135,5.3,-999.0,38,-99.99,,,0.00,Acu-Link.com,2013-02-16 07:56:00,